Time;durP1;ratioP1;P1;durP2;ratioP2;P2;SDS_P1;SDS_P2;PMS_P1;PMS_P2;Temp;Humidity;BMP_temperature;BMP_pressure;BME280_temperature;BME280_humidity;BME280_pressure;Samples;Min_cycle;Max_cycle;Signal;HPM_P1;HPM_P2
2021/06/15 00:01:19;;;;;;;6.57;2.28;;;435.90;1894.40;;;;;;4870452;29;20030;-81
2021/06/15 00:03:45;;;;;;;5.47;2.28;;;436.00;1894.40;;;;;;4856503;29;20041;-80
2021/06/15 00:06:11;;;;;;;10.45;2.35;;;435.90;1894.40;;;;;;4872157;29;20025;-80
2021/06/15 00:08:36;;;;;;;11.23;3.42;;;436.00;1894.40;;;;;;4859483;29;20112;-80
2021/06/15 00:11:03;;;;;;;7.22;2.40;;;436.10;1894.40;;;;;;4875347;29;20025;-80
2021/06/15 00:13:29;;;;;;;6.57;2.25;;;436.00;1894.40;;;;;;4875932;29;20028;-80
2021/06/15 00:15:55;;;;;;;11.65;2.33;;;435.90;1894.40;;;;;;4845627;29;20021;-80
2021/06/15 00:18:21;;;;;;;7.68;2.40;;;435.90;1894.40;;;;;;4872162;29;20021;-80
2021/06/15 00:20:49;;;;;;;9.93;2.58;;;435.70;1920.00;;;;;;4853951;29;20032;-80
2021/06/15 00:23:14;;;;;;;4.38;2.33;;;435.60;1920.00;;;;;;4849592;29;20072;-80
2021/06/15 00:25:40;;;;;;;10.27;2.70;;;435.60;1920.00;;;;;;4852024;29;20021;-80
2021/06/15 00:28:06;;;;;;;4.90;2.60;;;435.50;1945.60;;;;;;4870590;29;20557;-81
2021/06/15 00:30:33;;;;;;;3.50;2.00;;;435.50;1920.00;;;;;;4856325;29;20479;-81
2021/06/15 00:32:58;;;;;;;6.43;2.22;;;435.40;1945.60;;;;;;4869765;29;20064;-80
2021/06/15 00:35:25;;;;;;;7.65;2.00;;;435.50;1920.00;;;;;;4854426;29;20049;-80
2021/06/15 00:37:51;;;;;;;5.10;2.40;;;435.50;1920.00;;;;;;4853479;29;20475;-80
2021/06/15 00:40:18;;;;;;;5.32;2.33;;;435.40;1945.60;;;;;;4858771;29;20115;-80
2021/06/15 00:42:45;;;;;;;8.02;2.78;;;435.50;1920.00;;;;;;4848817;29;20116;-80
2021/06/15 00:45:14;;;;;;;5.80;2.67;;;435.40;1945.60;;;;;;4849861;29;20033;-80
2021/06/15 00:47:47;;;;;;;12.13;2.60;;;435.30;1945.60;;;;;;4874425;29;20315;-81
2021/06/15 00:50:14;;;;;;;7.93;2.33;;;435.30;1945.60;;;;;;4873173;29;20022;-81
2021/06/15 00:52:40;;;;;;;7.20;2.05;;;435.30;1945.60;;;;;;4852501;29;20034;-80
2021/06/15 00:55:06;;;;;;;4.18;1.88;;;435.50;1920.00;;;;;;4864871;29;20022;-81
2021/06/15 00:57:32;;;;;;;5.65;2.67;;;435.30;1945.60;;;;;;4851739;29;20117;-81
2021/06/15 00:59:58;;;;;;;6.05;2.47;;;435.30;1971.20;;;;;;4851471;29;20112;-80
2021/06/15 01:02:30;;;;;;;6.57;2.05;;;435.40;1945.60;;;;;;4863497;29;20029;-81
2021/06/15 01:05:01;;;;;;;6.65;2.97;;;435.30;1971.20;;;;;;4854255;29;20045;-81
2021/06/15 01:07:31;;;;;;;4.20;2.55;;;435.30;1971.20;;;;;;4856182;29;20377;-80
2021/06/15 01:10:21;;;;;;;4.85;2.33;;;435.50;1945.60;;;;;;4859688;29;20034;-80
2021/06/15 01:13:21;;;;;;;4.68;2.10;;;435.50;1971.20;;;;;;4865489;29;20476;-80
2021/06/15 01:15:55;;;;;;;8.57;2.88;;;435.60;1945.60;;;;;;4757188;30;20499;-80
2021/06/15 01:18:24;;;;;;;7.13;3.35;;;435.80;1945.60;;;;;;4761473;30;20039;-80
2021/06/15 01:20:52;;;;;;;4.22;2.17;;;435.90;1894.40;;;;;;4768312;30;20036;-80
2021/06/15 01:23:36;;;;;;;6.15;2.55;;;435.90;1894.40;;;;;;4785197;30;20097;-81
2021/06/15 01:26:26;;;;;;;4.78;1.92;;;435.90;1894.40;;;;;;4785736;30;20035;-80
2021/06/15 01:29:06;;;;;;;3.42;2.25;;;436.00;1894.40;;;;;;4762343;30;20031;-80
2021/06/15 01:31:39;;;;;;;7.68;2.35;;;436.10;1894.40;;;;;;4783588;30;20031;-80
2021/06/15 01:34:13;;;;;;;4.93;2.40;;;460.80;1894.40;;;;;;4785702;30;20034;-81
2021/06/15 01:36:50;;;;;;;4.53;1.95;;;436.10;1894.40;;;;;;4770032;30;20072;-80
2021/06/15 01:39:20;;;;;;;7.18;2.30;;;436.10;1920.00;;;;;;4785173;30;20043;-80
2021/06/15 01:41:57;;;;;;;5.32;2.40;;;436.10;1920.00;;;;;;4763177;30;20274;-81
2021/06/15 01:44:24;;;;;;;11.00;2.33;;;436.00;1920.00;;;;;;4784982;30;20047;-81
2021/06/15 01:47:06;;;;;;;4.45;2.08;;;436.00;1920.00;;;;;;4770716;30;20039;-81
2021/06/15 01:49:58;;;;;;;2.97;1.70;;;435.90;1945.60;;;;;;4768650;30;20040;-82
2021/06/15 01:52:32;;;;;;;4.47;2.08;;;435.90;1945.60;;;;;;4784033;29;20709;-80
2021/06/15 01:55:00;;;;;;;5.88;2.10;;;435.90;1945.60;;;;;;4845963;29;20033;-81
2021/06/15 01:57:26;;;;;;;8.25;2.03;;;435.90;1945.60;;;;;;4845155;29;20022;-80
2021/06/15 01:59:55;;;;;;;5.85;1.88;;;436.00;1920.00;;;;;;4850323;29;20034;-80
2021/06/15 02:02:21;;;;;;;4.88;2.20;;;436.00;1920.00;;;;;;4848370;29;20518;-80
2021/06/15 02:04:50;;;;;;;4.40;2.13;;;436.00;1945.60;;;;;;4860994;29;20112;-80
2021/06/15 02:07:21;;;;;;;3.55;2.10;;;436.10;1920.00;;;;;;4850164;29;20101;-80
2021/06/15 02:09:51;;;;;;;6.13;2.55;;;436.10;1945.60;;;;;;4843460;29;20022;-81
2021/06/15 02:12:20;;;;;;;8.38;2.88;;;436.10;1920.00;;;;;;4847902;29;20036;-80
2021/06/15 02:14:46;;;;;;;6.45;2.70;;;436.10;1920.00;;;;;;4850796;29;20113;-80
2021/06/15 02:17:14;;;;;;;6.85;2.80;;;435.90;1920.00;;;;;;4849113;29;20033;-80
2021/06/15 02:19:43;;;;;;;3.40;1.92;;;435.90;1920.00;;;;;;4847453;29;20416;-81
2021/06/15 02:22:19;;;;;;;7.63;2.17;;;436.00;1920.00;;;;;;4845369;29;20058;-80
2021/06/15 02:24:49;;;;;;;4.60;2.45;;;435.90;1920.00;;;;;;4852497;29;20037;-80
2021/06/15 02:27:19;;;;;;;5.45;2.40;;;435.90;1945.60;;;;;;4848468;29;20050;-81
2021/06/15 02:29:45;;;;;;;4.00;2.17;;;435.70;1945.60;;;;;;4845313;29;20034;-80
2021/06/15 02:32:13;;;;;;;7.75;2.28;;;435.60;1945.60;;;;;;4848551;29;20022;-80
2021/06/15 02:34:46;;;;;;;4.55;2.58;;;435.60;1945.60;;;;;;4842671;29;20086;-80
2021/06/15 02:37:16;;;;;;;12.48;2.60;;;435.50;1945.60;;;;;;4845395;29;20030;-81
2021/06/15 02:39:43;;;;;;;5.35;2.55;;;435.50;1945.60;;;;;;4849423;29;20479;-80
2021/06/15 02:42:12;;;;;;;4.70;2.50;;;435.30;1996.80;;;;;;4851891;29;20049;-81
2021/06/15 02:44:41;;;;;;;7.32;3.50;;;435.30;1971.20;;;;;;4852175;29;20392;-80
2021/06/15 02:47:08;;;;;;;7.55;2.67;;;435.30;1971.20;;;;;;4849366;29;20391;-80
2021/06/15 02:49:55;;;;;;;8.05;3.00;;;435.50;1971.20;;;;;;4845706;29;20029;-82
2021/06/15 02:53:09;;;;;;;3.90;2.50;;;435.50;1945.60;;;;;;4853266;29;20376;-80
2021/06/15 02:55:44;;;;;;;7.90;3.25;;;435.60;1945.60;;;;;;4849629;29;20033;-80
2021/06/15 02:58:09;;;;;;;6.05;2.72;;;435.60;1945.60;;;;;;4847123;29;20473;-80
2021/06/15 03:00:35;;;;;;;4.80;2.88;;;435.50;1945.60;;;;;;4857766;29;20094;-80
2021/06/15 03:03:04;;;;;;;8.30;2.65;;;435.30;1945.60;;;;;;4855178;29;20043;-79
2021/06/15 03:05:30;;;;;;;9.35;2.35;;;435.40;1945.60;;;;;;4843639;29;20070;-79
2021/06/15 03:07:56;;;;;;;5.55;3.40;;;435.50;1971.20;;;;;;4856828;29;20105;-79
2021/06/15 03:10:24;;;;;;;10.25;3.33;;;435.40;1945.60;;;;;;4841500;29;20192;-79
2021/06/15 03:12:57;;;;;;;7.63;3.25;;;435.30;1971.20;;;;;;4854205;29;20032;-79
2021/06/15 03:15:51;;;;;;;4.72;2.97;;;435.40;1971.20;;;;;;4847683;29;20042;-79
2021/06/15 03:18:31;;;;;;;8.70;3.08;;;435.30;1971.20;;;;;;4846340;29;20389;-79
2021/06/15 03:21:00;;;;;;;9.55;3.28;;;435.30;1971.20;;;;;;4842307;29;20065;-79
2021/06/15 03:23:47;;;;;;;5.53;2.80;;;435.20;1996.80;;;;;;4856553;29;20052;-79
2021/06/15 03:26:25;;;;;;;;;;;435.20;1996.80;;;;;;4843615;29;20389;-78
2021/06/15 03:28:56;;;;;;;6.78;2.83;;;435.30;1996.80;;;;;;4856235;29;19915;-79
2021/06/15 03:31:24;;;;;;;5.05;2.78;;;435.20;1996.80;;;;;;4848362;29;20026;-79
2021/06/15 03:33:52;;;;;;;6.07;3.13;;;435.30;1996.80;;;;;;4848435;29;20097;-78
2021/06/15 03:36:19;;;;;;;7.85;3.45;;;435.30;1996.80;;;;;;4864085;29;20022;-79
2021/06/15 03:38:48;;;;;;;6.53;2.85;;;435.30;1996.80;;;;;;4864661;29;20456;-79
2021/06/15 03:41:15;;;;;;;4.80;2.78;;;435.20;1996.80;;;;;;4859317;29;20128;-79
2021/06/15 03:43:54;;;;;;;6.95;2.97;;;435.30;1971.20;;;;;;4846845;29;20044;-79
2021/06/15 03:46:22;;;;;;;5.32;3.30;;;435.30;1971.20;;;;;;4859620;29;20036;-79
2021/06/15 03:48:50;;;;;;;8.60;2.92;;;435.30;1996.80;;;;;;4845414;29;20030;-80
2021/06/15 03:51:24;;;;;;;7.65;3.22;;;435.40;1971.20;;;;;;4860763;29;20441;-79
2021/06/15 03:53:51;;;;;;;5.53;2.67;;;435.50;1971.20;;;;;;4842231;29;20030;-78
2021/06/15 03:56:19;;;;;;;5.50;2.88;;;435.50;1971.20;;;;;;4857138;29;20030;-79
2021/06/15 03:58:46;;;;;;;14.32;2.78;;;435.50;1971.20;;;;;;4864777;29;20061;-79
2021/06/15 04:01:17;;;;;;;5.95;2.80;;;435.50;1971.20;;;;;;4847142;29;20034;-79
2021/06/15 04:03:45;;;;;;;8.63;2.72;;;435.60;1971.20;;;;;;4860720;29;20037;-79
2021/06/15 04:06:13;;;;;;;9.85;2.47;;;435.60;1971.20;;;;;;4845608;29;20025;-79
2021/06/15 04:08:40;;;;;;;8.70;2.70;;;435.70;1945.60;;;;;;4846004;29;20034;-79
2021/06/15 04:11:08;;;;;;;5.18;2.90;;;435.60;1971.20;;;;;;4844622;29;20036;-79
2021/06/15 04:13:35;;;;;;;7.05;2.80;;;435.60;1971.20;;;;;;4851229;29;20033;-78
2021/06/15 04:16:03;;;;;;;5.63;2.92;;;435.70;1971.20;;;;;;4861362;29;20029;-79
2021/06/15 04:18:30;;;;;;;9.88;3.15;;;435.60;1996.80;;;;;;4862902;29;20051;-79
2021/06/15 04:21:02;;;;;;;9.23;2.83;;;435.60;1996.80;;;;;;4848608;29;20033;-80
2021/06/15 04:23:37;;;;;;;5.30;2.83;;;435.60;2022.40;;;;;;4867463;29;20106;-79
2021/06/15 04:26:03;;;;;;;5.30;2.65;;;435.50;2022.40;;;;;;4863183;29;20108;-79
2021/06/15 04:28:30;;;;;;;6.97;3.03;;;435.60;1996.80;;;;;;4847212;29;20028;-79
2021/06/15 04:30:56;;;;;;;7.05;2.95;;;435.50;1996.80;;;;;;4866153;29;20034;-79
2021/06/15 04:33:27;;;;;;;11.70;3.28;;;435.60;2022.40;;;;;;4865030;29;20040;-80
2021/06/15 04:35:54;;;;;;;4.35;2.65;;;435.60;1996.80;;;;;;4863871;29;20029;-79
2021/06/15 04:38:40;;;;;;;6.25;2.45;;;435.80;1996.80;;;;;;4849895;29;20059;-79
2021/06/15 04:41:14;;;;;;;6.63;2.78;;;435.90;1996.80;;;;;;4863696;29;20040;-79
2021/06/15 04:43:51;;;;;;;9.02;4.07;;;436.10;1971.20;;;;;;4852000;29;20060;-79
2021/06/15 04:46:28;;;;;;;8.07;3.30;;;436.10;1945.60;;;;;;4857979;29;20025;-79
2021/06/15 04:49:16;;;;;;;6.70;2.50;;;436.10;1945.60;;;;;;4865531;29;20022;-83
2021/06/15 04:51:44;;;;;;;5.38;2.45;;;460.80;1945.60;;;;;;4844529;29;20042;-79
2021/06/15 04:54:12;;;;;;;6.30;2.63;;;460.80;1945.60;;;;;;4844747;29;20064;-78
2021/06/15 04:56:41;;;;;;;7.28;2.28;;;460.80;1945.60;;;;;;4863150;29;20025;-79
2021/06/15 04:59:07;;;;;;;5.03;2.72;;;460.90;1920.00;;;;;;4864318;29;20037;-87
2021/06/15 05:01:36;;;;;;;6.20;2.33;;;461.00;1894.40;;;;;;4862436;29;20030;-78
2021/06/15 05:04:05;;;;;;;6.72;2.25;;;461.00;1920.00;;;;;;4863753;29;20045;-78
2021/06/15 05:06:32;;;;;;;7.75;2.03;;;461.10;1894.40;;;;;;4864570;29;20018;-77
2021/06/15 05:09:01;;;;;;;3.95;2.20;;;461.10;1868.80;;;;;;4861822;29;20030;-78
2021/06/15 05:11:32;;;;;;;5.03;2.15;;;461.10;1894.40;;;;;;4866657;29;20029;-78
2021/06/15 05:14:01;;;;;;;6.82;2.70;;;461.00;1920.00;;;;;;4865458;29;20065;-79
2021/06/15 05:16:31;;;;;;;5.45;2.10;;;461.10;1894.40;;;;;;4848323;29;20035;-81
2021/06/15 05:18:58;;;;;;;4.07;2.00;;;461.10;1894.40;;;;;;4865731;29;20494;-78
2021/06/15 05:21:30;;;;;;;4.88;2.60;;;461.10;1894.40;;;;;;4850294;29;20033;-80
2021/06/15 05:24:01;;;;;;;13.68;2.78;;;461.20;1868.80;;;;;;4862800;29;20054;-79
2021/06/15 05:26:28;;;;;;;9.77;2.50;;;461.40;1868.80;;;;;;4871407;29;20029;-80
2021/06/15 05:28:54;;;;;;;4.75;2.50;;;461.40;1894.40;;;;;;4878735;29;20029;-79
2021/06/15 05:31:19;;;;;;;3.45;2.33;;;461.40;1868.80;;;;;;4879146;29;20060;-79
2021/06/15 05:33:45;;;;;;;4.70;2.90;;;461.50;1868.80;;;;;;4879595;29;20025;-80
2021/06/15 05:36:11;;;;;;;7.10;2.53;;;461.70;1817.60;;;;;;4878800;29;20036;-79
2021/06/15 05:38:37;;;;;;;5.78;2.38;;;486.40;1868.80;;;;;;4861762;29;20043;-79
2021/06/15 05:41:03;;;;;;;4.32;2.33;;;486.50;1843.20;;;;;;4879074;29;20021;-79
2021/06/15 05:43:28;;;;;;;6.72;3.30;;;486.50;1817.60;;;;;;4879123;29;20359;-81
2021/06/15 05:45:54;;;;;;;5.28;2.80;;;486.60;1792.00;;;;;;4879108;29;20029;-79
2021/06/15 05:48:20;;;;;;;4.45;2.50;;;486.40;1817.60;;;;;;4878814;29;20025;-79
2021/06/15 05:50:48;;;;;;;3.92;2.22;;;461.70;1843.20;;;;;;4861836;29;20040;-77
2021/06/15 05:53:15;;;;;;;6.20;2.45;;;486.40;1817.60;;;;;;4878996;29;20044;-79
2021/06/15 05:55:40;;;;;;;7.35;3.20;;;486.40;1792.00;;;;;;4861822;29;20101;-79
2021/06/15 05:58:06;;;;;;;6.38;3.20;;;486.40;1792.00;;;;;;4847698;29;20108;-78
2021/06/15 06:00:32;;;;;;;6.30;2.70;;;486.40;1792.00;;;;;;4863599;29;20055;-78
2021/06/15 06:02:58;;;;;;;4.38;2.50;;;486.50;1843.20;;;;;;4861725;29;20042;-79
2021/06/15 06:08:05;;;;;;;5.93;3.00;;;486.60;1766.40;;;;;;4864849;29;20036;-79
2021/06/15 06:10:31;;;;;;;6.35;2.60;;;486.70;1792.00;;;;;;4862204;29;20124;-79
2021/06/15 06:12:57;;;;;;;6.88;2.30;;;486.80;1766.40;;;;;;4876813;29;20081;-78
2021/06/15 06:15:23;;;;;;;5.55;2.67;;;486.90;1766.40;;;;;;4878152;29;20033;-77
2021/06/15 06:17:49;;;;;;;6.47;2.40;;;487.00;1740.80;;;;;;4878459;29;20479;-78
2021/06/15 06:20:16;;;;;;;5.97;2.45;;;487.00;1792.00;;;;;;4878399;29;20035;-78
2021/06/15 06:22:42;;;;;;;8.63;2.60;;;487.20;1766.40;;;;;;4878053;29;20060;-78
2021/06/15 06:25:13;;;;;;;8.77;3.30;;;487.30;1740.80;;;;;;4878443;29;20025;-81
2021/06/15 06:27:39;;;;;;;5.45;2.40;;;512.00;1715.20;;;;;;4861643;29;20073;-80
2021/06/15 06:30:06;;;;;;;6.65;2.53;;;512.00;1740.80;;;;;;4878346;29;20025;-78
2021/06/15 06:32:33;;;;;;;6.57;2.70;;;512.30;1715.20;;;;;;4877993;29;20029;-79
2021/06/15 06:35:00;;;;;;;10.52;2.53;;;512.40;1664.00;;;;;;4878133;29;20036;-79
2021/06/15 06:37:26;;;;;;;5.95;2.30;;;512.40;1689.60;;;;;;4877990;29;20028;-78
2021/06/15 06:39:52;;;;;;;8.38;2.20;;;512.30;1715.20;;;;;;4878340;29;20029;-79
2021/06/15 06:42:19;;;;;;;6.85;2.70;;;512.50;1664.00;;;;;;4860423;29;20504;-80
2021/06/15 06:44:44;;;;;;;10.20;3.35;;;512.60;1664.00;;;;;;4861556;29;20033;-79
2021/06/15 06:47:10;;;;;;;9.18;2.70;;;512.60;1689.60;;;;;;4861305;29;20395;-80
2021/06/15 06:49:37;;;;;;;5.32;3.42;;;512.70;1689.60;;;;;;4878049;29;20029;-78
2021/06/15 06:52:03;;;;;;;7.45;2.67;;;512.80;1638.40;;;;;;4877063;29;20080;-80
2021/06/15 06:54:29;;;;;;;13.05;2.70;;;512.80;1612.80;;;;;;4874423;29;20037;-79
2021/06/15 06:56:55;;;;;;;6.63;2.60;;;512.80;1638.40;;;;;;4869534;29;20033;-80
2021/06/15 06:59:21;;;;;;;7.15;2.70;;;512.80;1664.00;;;;;;4877817;29;20025;-79
2021/06/15 07:01:47;;;;;;;5.95;2.85;;;537.60;1638.40;;;;;;4878240;29;20025;-80
2021/06/15 07:04:13;;;;;;;7.13;3.85;;;537.70;1612.80;;;;;;4872915;29;20143;-80
2021/06/15 07:06:39;;;;;;;7.57;5.25;;;537.70;1612.80;;;;;;4861427;29;20536;-80
2021/06/15 07:09:05;;;;;;;8.05;4.50;;;537.80;1561.60;;;;;;4861174;29;20037;-79
2021/06/15 07:11:31;;;;;;;5.55;2.25;;;538.00;1612.80;;;;;;4877050;29;20025;-80
2021/06/15 07:13:57;;;;;;;5.32;2.50;;;538.00;1587.20;;;;;;4868446;29;20119;-81
2021/06/15 07:16:22;;;;;;;8.27;3.05;;;538.00;1587.20;;;;;;4861207;29;20036;-81
2021/06/15 07:18:48;;;;;;;6.95;2.33;;;538.10;1587.20;;;;;;4861406;29;20032;-80
2021/06/15 07:21:14;;;;;;;7.25;2.60;;;538.10;1561.60;;;;;;4860955;29;20041;-81
2021/06/15 07:23:41;;;;;;;7.15;2.75;;;538.20;1612.80;;;;;;4877780;29;20049;-81
2021/06/15 07:26:07;;;;;;;6.38;1.98;;;538.20;1587.20;;;;;;4861072;29;20033;-81
2021/06/15 07:28:33;;;;;;;4.25;2.22;;;538.10;1561.60;;;;;;4861585;29;20030;-81
2021/06/15 07:30:59;;;;;;;7.63;2.72;;;538.10;1561.60;;;;;;4860926;29;20036;-79
2021/06/15 07:33:25;;;;;;;7.03;2.20;;;538.10;1561.60;;;;;;4877729;29;20108;-80
2021/06/15 07:35:51;;;;;;;4.70;1.90;;;538.10;1587.20;;;;;;4877635;29;20033;-79
2021/06/15 07:38:17;;;;;;;3.10;2.00;;;538.10;1536.00;;;;;;4877795;29;20029;-79
2021/06/15 07:40:42;;;;;;;5.32;2.13;;;538.10;1561.60;;;;;;4877319;29;20029;-80
2021/06/15 07:43:08;;;;;;;8.30;2.50;;;538.20;1561.60;;;;;;4877129;29;20021;-78
2021/06/15 07:45:37;;;;;;;5.72;2.20;;;538.40;1587.20;;;;;;4861110;29;20033;-79
2021/06/15 07:48:03;;;;;;;7.88;2.75;;;538.50;1536.00;;;;;;4877185;29;20141;-79
2021/06/15 07:50:29;;;;;;;25.13;2.83;;;538.50;1536.00;;;;;;4860685;29;20072;-79
2021/06/15 07:52:54;;;;;;;6.00;2.35;;;538.50;1510.40;;;;;;4860874;29;20559;-78
2021/06/15 07:55:21;;;;;;;4.25;2.25;;;538.50;1510.40;;;;;;4880840;29;20029;-77
2021/06/15 07:57:47;;;;;;;4.97;2.10;;;563.30;1561.60;;;;;;4880294;29;20109;-78
2021/06/15 08:00:15;;;;;;;7.85;2.15;;;563.50;1561.60;;;;;;4880613;29;20468;-78
2021/06/15 08:02:41;;;;;;;6.90;2.13;;;563.50;1587.20;;;;;;4863859;29;20080;-78
2021/06/15 08:05:07;;;;;;;4.72;2.00;;;563.60;1536.00;;;;;;4880658;29;20472;-79
2021/06/15 08:07:33;;;;;;;3.63;2.25;;;563.80;1510.40;;;;;;4880986;29;20033;-79
2021/06/15 08:09:59;;;;;;;8.68;2.63;;;563.90;1510.40;;;;;;4863843;29;20085;-79
2021/06/15 08:12:25;;;;;;;18.27;11.80;;;563.90;1510.40;;;;;;4880972;29;20045;-79
2021/06/15 08:14:50;;;;;;;5.90;2.17;;;564.00;1510.40;;;;;;4880332;29;20029;-79
2021/06/15 08:17:16;;;;;;;3.20;1.85;;;563.90;1484.80;;;;;;4863727;29;20113;-79
2021/06/15 08:19:42;;;;;;;22.45;3.13;;;563.80;1510.40;;;;;;4880462;29;20104;-79
2021/06/15 08:22:08;;;;;;;7.55;2.13;;;563.90;1510.40;;;;;;4863691;29;20128;-79
2021/06/15 08:24:34;;;;;;;5.88;4.07;;;564.00;1536.00;;;;;;4863665;29;20404;-80
2021/06/15 08:27:00;;;;;;;5.65;2.10;;;588.90;1459.20;;;;;;4863821;29;20116;-80
2021/06/15 08:29:26;;;;;;;4.18;1.90;;;;;;;;;;4880495;29;20040;-80
2021/06/15 08:31:52;;;;;;;4.20;1.95;;;589.40;1433.60;;;;;;4880158;29;20051;-79
2021/06/15 08:34:18;;;;;;;6.55;3.00;;;589.40;1459.20;;;;;;4863174;29;20111;-79
2021/06/15 08:36:44;;;;;;;4.57;1.98;;;589.50;1459.20;;;;;;4880050;29;20107;-81
2021/06/15 08:39:10;;;;;;;8.25;2.10;;;589.40;1459.20;;;;;;4863642;29;20033;-79
2021/06/15 08:41:37;;;;;;;4.70;2.13;;;589.50;1484.80;;;;;;4880360;29;20046;-80
2021/06/15 08:44:05;;;;;;;6.10;2.40;;;589.70;1459.20;;;;;;4863651;29;20177;-80
2021/06/15 08:46:31;;;;;;;3.70;2.25;;;589.70;1459.20;;;;;;4880261;29;20017;-81
2021/06/15 08:48:57;;;;;;;5.57;3.17;;;614.40;1459.20;;;;;;4866450;29;20507;-80
2021/06/15 08:51:23;;;;;;;6.88;2.42;;;614.40;1408.00;;;;;;4877184;29;20033;-79
2021/06/15 08:53:53;;;;;;;7.88;2.60;;;614.50;1382.40;;;;;;4879562;29;20037;-79
2021/06/15 08:56:31;;;;;;;7.00;2.28;;;614.40;1408.00;;;;;;4877393;29;20017;-82
2021/06/15 08:59:10;;;;;;;7.90;2.72;;;589.70;1408.00;;;;;;4879695;29;20029;-81
2021/06/15 09:01:36;;;;;;;5.78;2.10;;;589.70;1459.20;;;;;;4862785;29;20476;-80
2021/06/15 09:04:02;;;;;;;3.85;2.30;;;589.50;1459.20;;;;;;4878948;29;20117;-80
2021/06/15 09:06:28;;;;;;;7.63;2.42;;;589.70;1433.60;;;;;;4879983;29;20065;-82
2021/06/15 09:08:59;;;;;;;5.70;2.13;;;589.70;1408.00;;;;;;4863047;29;20032;-80
2021/06/15 09:11:26;;;;;;;6.85;2.80;;;614.50;1408.00;;;;;;4862863;29;20033;-81
2021/06/15 09:13:52;;;;;;;4.40;2.65;;;614.70;1408.00;;;;;;4852380;29;20021;-81
2021/06/15 09:16:23;;;;;;;5.57;2.33;;;614.70;1382.40;;;;;;4860836;29;20438;-80
2021/06/15 09:18:50;;;;;;;4.90;2.53;;;614.80;1382.40;;;;;;4862954;29;20716;-81
2021/06/15 09:21:37;;;;;;;4.35;2.50;;;614.80;1408.00;;;;;;4862698;29;20039;-81
2021/06/15 09:24:24;;;;;;;3.88;2.20;;;614.90;1382.40;;;;;;4862671;29;20055;-81
2021/06/15 09:27:05;;;;;;;3.38;2.00;;;614.90;1408.00;;;;;;4863175;29;20060;-81
2021/06/15 09:29:42;;;;;;;4.78;2.45;;;615.10;1356.80;;;;;;4863079;29;20033;-83
2021/06/15 09:32:36;;;;;;;6.50;2.72;;;615.20;1305.60;;;;;;4879466;29;20149;-82
2021/06/15 09:35:19;;;;;;;4.35;2.40;;;615.30;1305.60;;;;;;4879014;29;20041;-80
2021/06/15 09:37:56;;;;;;;8.30;2.65;;;640.00;1305.60;;;;;;4872222;29;20056;-80
2021/06/15 09:40:28;;;;;;;2.97;1.75;;;640.20;1305.60;;;;;;4862383;29;20073;-81
2021/06/15 09:43:09;;;;;;;4.60;1.92;;;640.10;1356.80;;;;;;4878904;29;20084;-79
2021/06/15 09:45:43;;;;;;;3.70;2.33;;;640.00;1331.20;;;;;;4862677;29;20088;-80
2021/06/15 09:48:35;;;;;;;6.32;2.25;;;640.10;1331.20;;;;;;4879063;29;20017;-80
2021/06/15 09:51:06;;;;;;;6.57;2.22;;;640.50;1331.20;;;;;;4878681;29;20029;-80
2021/06/15 09:53:34;;;;;;;4.60;2.15;;;640.60;1356.80;;;;;;4878975;29;20038;-80
2021/06/15 09:56:06;;;;;;;4.85;1.90;;;640.90;1305.60;;;;;;4878891;29;20017;-79
2021/06/15 09:58:48;;;;;;;4.15;2.55;;;640.90;1331.20;;;;;;4879110;29;20472;-80
2021/06/15 10:01:28;;;;;;;4.25;2.10;;;640.90;1305.60;;;;;;4879055;29;20237;-80
2021/06/15 10:04:12;;;;;;;3.05;1.60;;;640.90;1280.00;;;;;;4878193;29;20093;-80
2021/06/15 10:06:46;;;;;;;4.30;1.90;;;665.60;1305.60;;;;;;4877097;29;20026;-80
2021/06/15 10:09:12;;;;;;;2.85;1.67;;;665.70;1331.20;;;;;;4859028;29;20037;-81
2021/06/15 10:11:39;;;;;;;3.90;2.03;;;666.00;1305.60;;;;;;4861710;29;20036;-80
2021/06/15 10:14:05;;;;;;;4.40;1.88;;;666.20;1331.20;;;;;;4862032;29;20085;-80
2021/06/15 10:16:32;;;;;;;4.97;1.90;;;666.40;1305.60;;;;;;4877470;29;20017;-79
2021/06/15 10:19:01;;;;;;;5.57;2.20;;;666.50;1280.00;;;;;;4861682;29;20029;-81
2021/06/15 10:21:28;;;;;;;4.00;2.38;;;691.40;1280.00;;;;;;4878629;29;20608;-81
2021/06/15 10:23:54;;;;;;;3.38;2.00;;;666.30;1280.00;;;;;;4878399;29;20045;-80
2021/06/15 10:26:20;;;;;;;3.53;1.65;;;666.00;1305.60;;;;;;4861886;29;20377;-80
2021/06/15 10:28:46;;;;;;;3.65;1.98;;;666.10;1280.00;;;;;;4877772;29;20039;-81
2021/06/15 10:31:12;;;;;;;4.88;1.92;;;666.30;1280.00;;;;;;4859072;29;20433;-81
2021/06/15 10:33:51;;;;;;;4.93;2.05;;;666.30;1254.40;;;;;;4861460;29;20116;-80
2021/06/15 10:36:34;;;;;;;3.35;2.03;;;665.90;1305.60;;;;;;4861424;29;20029;-80
2021/06/15 10:39:00;;;;;;;3.63;2.15;;;640.90;1305.60;;;;;;4876529;29;20036;-81
2021/06/15 10:41:26;;;;;;;3.42;2.10;;;665.60;1331.20;;;;;;4877824;29;20037;-81
2021/06/15 10:43:57;;;;;;;3.80;1.88;;;665.60;1356.80;;;;;;4878260;29;20036;-80
2021/06/15 10:46:38;;;;;;;3.58;2.30;;;666.20;1331.20;;;;;;4878261;29;20021;-81
2021/06/15 10:49:14;;;;;;;6.18;2.58;;;666.50;1305.60;;;;;;4861742;29;20035;-81
2021/06/15 10:51:42;;;;;;;3.63;2.30;;;691.40;1305.60;;;;;;4861649;29;20041;-80
2021/06/15 10:54:38;;;;;;;6.22;2.42;;;691.40;1280.00;;;;;;4861253;29;20052;-80
2021/06/15 10:57:29;;;;;;;3.40;1.92;;;691.20;1280.00;;;;;;4861105;29;20113;-79
2021/06/15 10:59:59;;;;;;;3.88;1.90;;;666.20;1305.60;;;;;;4860169;29;20043;-80
2021/06/15 11:02:28;;;;;;;3.40;1.95;;;665.90;1305.60;;;;;;4878024;29;20029;-82
2021/06/15 11:04:55;;;;;;;2.60;1.67;;;666.00;1331.20;;;;;;4860944;29;20388;-82
2021/06/15 11:07:40;;;;;;;5.85;2.30;;;666.30;1331.20;;;;;;4861276;29;20092;-81
2021/06/15 11:10:06;;;;;;;4.25;2.70;;;666.10;1331.20;;;;;;4858808;29;20021;-81
2021/06/15 11:12:47;;;;;;;5.72;2.13;;;666.00;1331.20;;;;;;4877613;29;20032;-82
2021/06/15 11:15:21;;;;;;;4.82;1.98;;;665.80;1331.20;;;;;;4876217;29;20049;-82
2021/06/15 11:17:50;;;;;;;4.40;2.20;;;665.60;1382.40;;;;;;4860945;29;20029;-82
2021/06/15 11:20:45;;;;;;;4.40;1.75;;;666.00;1356.80;;;;;;4861004;29;20033;-81
2021/06/15 11:23:16;;;;;;;6.72;1.58;;;665.60;1356.80;;;;;;4804199;29;20055;-81
2021/06/15 11:25:52;;;;;;;5.55;2.15;;;665.70;1356.80;;;;;;4805337;29;20406;-80
2021/06/15 11:28:36;;;;;;;3.83;2.33;;;666.00;1331.20;;;;;;4822423;29;20537;-81
2021/06/15 11:31:20;;;;;;;3.25;1.42;;;666.30;1331.20;;;;;;4823940;29;20073;-80
2021/06/15 11:34:05;;;;;;;6.07;2.03;;;691.20;1331.20;;;;;;4823153;29;20041;-80
2021/06/15 11:36:40;;;;;;;3.63;1.80;;;691.20;1305.60;;;;;;4823265;29;20037;-78
2021/06/15 11:39:27;;;;;;;4.22;2.08;;;691.20;1305.60;;;;;;4823781;29;20026;-78
2021/06/15 11:42:21;;;;;;;3.20;1.48;;;691.40;1280.00;;;;;;4808392;29;20113;-79
2021/06/15 11:45:01;;;;;;;4.95;1.60;;;691.20;1305.60;;;;;;4822738;29;20045;-79
2021/06/15 11:47:34;;;;;;;3.60;1.58;;;691.20;1305.60;;;;;;4808649;29;20421;-80
2021/06/15 11:50:19;;;;;;;5.95;1.85;;;691.60;1228.80;;;;;;4808723;29;20117;-80
2021/06/15 11:52:49;;;;;;;3.30;2.00;;;691.60;1280.00;;;;;;4823875;29;20053;-80
2021/06/15 11:55:15;;;;;;;2.42;1.83;;;691.40;1280.00;;;;;;4808009;29;20481;-80
2021/06/15 11:57:41;;;;;;;2.83;1.35;;;691.30;1280.00;;;;;;4823574;29;20046;-81
2021/06/15 12:00:13;;;;;;;3.28;1.73;;;691.60;1280.00;;;;;;4864428;29;20036;-81
2021/06/15 12:02:39;;;;;;;3.63;1.60;;;691.30;1254.40;;;;;;4864134;29;20531;-80
2021/06/15 12:05:13;;;;;;;4.40;1.65;;;666.50;1280.00;;;;;;4880503;29;20115;-80
2021/06/15 12:07:41;;;;;;;5.00;1.85;;;691.40;1280.00;;;;;;4880664;29;20476;-80
2021/06/15 12:10:10;;;;;;;4.78;1.65;;;691.70;1254.40;;;;;;4864245;29;20041;-80
2021/06/15 12:13:21;;;;;;;3.63;1.85;;;691.80;1280.00;;;;;;4864061;29;20029;-81
2021/06/15 12:15:52;;;;;;;2.47;1.63;;;692.10;1228.80;;;;;;4808673;29;20038;-82
2021/06/15 12:18:21;;;;;;;2.92;1.70;;;691.90;1203.20;;;;;;4790283;29;20027;-80
2021/06/15 12:20:48;;;;;;;3.60;1.90;;;692.00;1228.80;;;;;;4807652;29;20046;-81
2021/06/15 12:23:34;;;;;;;2.72;1.70;;;716.80;1280.00;;;;;;4806139;29;20136;-81
2021/06/15 12:26:08;;;;;;;;;;;691.80;1228.80;;;;;;4805772;29;20033;-80
2021/06/15 12:28:37;;;;;;;3.67;1.73;;;691.70;1254.40;;;;;;4790099;29;19952;-80
2021/06/15 12:31:05;;;;;;;4.50;2.15;;;691.40;1254.40;;;;;;4805219;29;20034;-80
2021/06/15 12:33:30;;;;;;;3.90;1.85;;;691.50;1280.00;;;;;;4805004;29;20169;-82
2021/06/15 12:36:16;;;;;;;4.20;2.13;;;691.30;1280.00;;;;;;4790342;29;20023;-83
2021/06/15 12:38:43;;;;;;;2.38;1.60;;;691.80;1280.00;;;;;;4796200;29;20058;-81